Time;durP1;ratioP1;P1;durP2;ratioP2;P2;SDS_P1;SDS_P2;PMS_P1;PMS_P2;Temp;Humidity;BMP_temperature;BMP_pressure;BME280_temperature;BME280_humidity;BME280_pressure;Samples;Min_cycle;Max_cycle;Signal;HPM_P1;HPM_P2
2023/04/03 00:01:14;;;;;;;1.80;0.77;;;3.40;99.90;;;;;;5073719;28;20096;-69
2023/04/03 00:03:41;;;;;;;1.20;0.60;;;3.40;99.90;;;;;;5073248;28;20036;-69
2023/04/03 00:06:08;;;;;;;3.17;0.85;;;3.40;99.90;;;;;;5072837;28;20561;-69
2023/04/03 00:08:34;;;;;;;3.95;1.00;;;3.40;99.90;;;;;;5056521;28;20036;-69
2023/04/03 00:11:01;;;;;;;3.10;1.13;;;3.40;99.90;;;;;;5073217;28;20055;-69
2023/04/03 00:13:26;;;;;;;1.90;0.68;;;3.40;99.80;;;;;;5074252;28;20539;-69
2023/04/03 00:15:52;;;;;;;2.05;0.95;;;3.30;99.60;;;;;;5074056;28;20166;-69
2023/04/03 00:18:17;;;;;;;3.20;0.90;;;3.30;99.60;;;;;;5073235;28;20040;-68
2023/04/03 00:20:43;;;;;;;4.13;1.20;;;3.30;99.70;;;;;;5072894;28;20511;-68
2023/04/03 00:23:09;;;;;;;3.85;1.02;;;3.20;99.70;;;;;;5072829;28;20032;-69
2023/04/03 00:25:35;;;;;;;3.20;1.15;;;3.20;99.70;;;;;;5072585;28;20075;-69
2023/04/03 00:28:01;;;;;;;2.63;0.88;;;3.20;99.80;;;;;;5074107;28;20038;-69
2023/04/03 00:30:27;;;;;;;3.95;1.48;;;3.20;99.90;;;;;;5072721;28;20119;-69
2023/04/03 00:32:53;;;;;;;1.58;0.73;;;3.20;99.90;;;;;;5074156;28;20474;-69
2023/04/03 00:35:20;;;;;;;6.00;1.38;;;3.20;99.90;;;;;;5073834;28;20048;-69
2023/04/03 00:37:46;;;;;;;3.60;1.17;;;3.20;99.90;;;;;;5072739;28;20404;-69
2023/04/03 00:40:13;;;;;;;2.60;0.80;;;3.10;99.90;;;;;;5073971;28;20075;-69
2023/04/03 00:42:43;;;;;;;2.38;0.82;;;3.10;99.90;;;;;;5072365;28;20496;-69
2023/04/03 00:45:23;;;;;;;2.78;1.15;;;3.10;99.90;;;;;;5072174;28;20075;-69
2023/04/03 00:47:49;;;;;;;3.47;1.40;;;3.00;99.90;;;;;;5073674;28;20040;-69
2023/04/03 00:50:15;;;;;;;3.90;1.67;;;3.00;99.90;;;;;;5073803;28;20040;-69
2023/04/03 00:52:40;;;;;;;2.67;0.93;;;3.00;99.90;;;;;;5072427;28;20044;-69
2023/04/03 00:55:08;;;;;;;3.25;0.95;;;3.00;99.90;;;;;;5072310;28;20056;-69
2023/04/03 00:57:34;;;;;;;4.57;1.20;;;3.00;99.90;;;;;;5072164;28;20041;-69
2023/04/03 01:00:08;;;;;;;5.15;1.38;;;3.00;99.90;;;;;;5072200;28;20049;-69
2023/04/03 01:02:34;;;;;;;8.02;1.33;;;3.00;99.90;;;;;;5073557;28;20506;-69
2023/04/03 01:05:00;;;;;;;3.22;1.25;;;3.00;99.90;;;;;;5055163;28;20072;-69
2023/04/03 01:07:29;;;;;;;1.90;0.90;;;2.90;99.90;;;;;;5071991;28;20040;-68
2023/04/03 01:10:01;;;;;;;3.65;1.15;;;2.90;99.90;;;;;;5073152;28;20036;-69
2023/04/03 01:12:32;;;;;;;2.60;1.23;;;2.90;99.90;;;;;;5072217;28;20496;-69
2023/04/03 01:15:23;;;;;;;3.55;1.10;;;2.80;99.90;;;;;;5071616;28;20527;-68
2023/04/03 01:17:50;;;;;;;2.50;1.48;;;2.80;99.90;;;;;;5061573;28;20060;-69
2023/04/03 01:20:31;;;;;;;3.35;1.20;;;2.80;99.90;;;;;;5071725;28;20032;-69
2023/04/03 01:23:08;;;;;;;3.08;1.52;;;2.80;99.90;;;;;;5072499;28;20523;-69
2023/04/03 01:25:36;;;;;;;2.22;1.27;;;2.80;99.90;;;;;;5071840;28;20032;-69
2023/04/03 01:28:03;;;;;;;8.30;1.25;;;2.70;99.90;;;;;;5054978;28;20032;-68
2023/04/03 01:30:34;;;;;;;5.38;1.50;;;2.80;99.90;;;;;;5072917;28;20047;-69
2023/04/03 01:32:59;;;;;;;6.20;1.35;;;2.80;99.90;;;;;;5071560;28;20547;-69
2023/04/03 01:35:25;;;;;;;5.15;1.40;;;2.70;99.90;;;;;;5072648;28;20119;-69
2023/04/03 01:37:51;;;;;;;4.18;1.48;;;2.70;99.90;;;;;;5071665;28;20096;-69
2023/04/03 01:40:16;;;;;;;5.13;1.63;;;2.70;99.90;;;;;;5072724;28;20033;-69
2023/04/03 01:42:42;;;;;;;3.83;1.85;;;2.70;99.90;;;;;;5072504;28;20036;-69
2023/04/03 01:45:08;;;;;;;4.78;1.65;;;2.60;99.90;;;;;;5071002;28;20532;-69
2023/04/03 01:47:34;;;;;;;3.95;1.45;;;2.60;99.90;;;;;;5054702;28;20040;-69
2023/04/03 01:49:59;;;;;;;4.00;1.48;;;2.50;99.90;;;;;;5071281;28;20044;-69
2023/04/03 01:52:25;;;;;;;5.05;1.52;;;2.50;99.90;;;;;;5071156;28;20036;-69
2023/04/03 01:54:50;;;;;;;4.80;1.38;;;2.50;99.90;;;;;;5070909;28;20093;-68
2023/04/03 01:57:16;;;;;;;2.17;1.35;;;2.50;99.90;;;;;;5072209;28;20405;-69
2023/04/03 01:59:42;;;;;;;5.70;1.67;;;2.50;99.90;;;;;;5071218;28;20045;-69
2023/04/03 02:02:07;;;;;;;2.63;1.05;;;2.40;99.90;;;;;;5070958;28;20045;-69
2023/04/03 02:04:33;;;;;;;3.10;1.30;;;2.40;99.90;;;;;;5070798;28;20492;-69
2023/04/03 02:06:58;;;;;;;3.58;1.55;;;2.40;99.90;;;;;;5072188;28;20040;-68
2023/04/03 02:09:24;;;;;;;5.03;1.40;;;2.40;99.90;;;;;;5054242;28;20087;-69
2023/04/03 02:11:50;;;;;;;3.45;1.40;;;2.40;99.90;;;;;;5070744;28;20048;-69
2023/04/03 02:14:15;;;;;;;4.57;1.58;;;2.40;99.90;;;;;;5070693;28;20032;-69
2023/04/03 02:16:41;;;;;;;3.85;1.50;;;2.40;99.90;;;;;;5071808;28;20028;-68
2023/04/03 02:19:06;;;;;;;8.38;1.45;;;2.30;99.90;;;;;;5070800;28;20123;-68
2023/04/03 02:21:32;;;;;;;6.50;1.70;;;2.40;99.90;;;;;;5070909;28;20091;-69
2023/04/03 02:23:58;;;;;;;3.75;1.30;;;2.30;99.90;;;;;;5070760;28;20044;-69
2023/04/03 02:26:24;;;;;;;4.47;1.85;;;2.30;99.90;;;;;;5071645;28;20068;-69
2023/04/03 02:28:50;;;;;;;4.47;1.58;;;2.20;99.90;;;;;;5071761;28;20049;-69
2023/04/03 02:31:15;;;;;;;4.20;1.40;;;2.30;99.90;;;;;;5070830;28;20151;-69
2023/04/03 02:33:41;;;;;;;5.30;1.30;;;2.30;99.90;;;;;;5071907;28;20050;-69
2023/04/03 02:36:07;;;;;;;3.88;1.67;;;2.30;99.90;;;;;;5070491;28;20496;-69
2023/04/03 02:38:34;;;;;;;5.78;1.33;;;2.30;99.90;;;;;;5071891;28;20037;-69
2023/04/03 02:41:06;;;;;;;5.32;1.73;;;2.30;99.90;;;;;;5070465;28;20048;-69
2023/04/03 02:43:31;;;;;;;8.57;2.10;;;2.30;99.90;;;;;;5070596;28;20514;-69
2023/04/03 02:45:57;;;;;;;5.13;1.55;;;2.20;99.90;;;;;;5070097;28;20120;-69
2023/04/03 02:48:24;;;;;;;5.45;1.77;;;2.20;99.90;;;;;;5070405;28;20086;-68
2023/04/03 02:50:50;;;;;;;3.97;1.60;;;2.30;99.90;;;;;;5070639;28;20080;-69
2023/04/03 02:53:16;;;;;;;2.67;1.75;;;2.30;99.90;;;;;;5071676;28;20032;-69
2023/04/03 02:55:42;;;;;;;8.85;1.80;;;2.30;99.90;;;;;;5071246;28;20170;-69
2023/04/03 02:58:08;;;;;;;2.65;2.00;;;2.20;99.90;;;;;;5070255;28;20032;-69
2023/04/03 03:00:34;;;;;;;4.80;2.13;;;2.20;99.90;;;;;;5070218;28;20564;-67
2023/04/03 03:02:59;;;;;;;5.70;1.65;;;2.10;99.90;;;;;;5070421;28;20059;-68
2023/04/03 03:05:25;;;;;;;7.10;1.60;;;2.10;99.90;;;;;;5071280;28;20488;-69
2023/04/03 03:07:51;;;;;;;5.40;1.90;;;2.10;99.90;;;;;;5071624;28;20075;-69
2023/04/03 03:10:17;;;;;;;5.15;1.67;;;2.10;99.90;;;;;;5070423;28;20133;-69
2023/04/03 03:12:43;;;;;;;9.00;1.80;;;2.20;99.90;;;;;;5070163;28;20032;-69
2023/04/03 03:15:09;;;;;;;5.05;1.50;;;2.10;99.90;;;;;;5069883;28;20036;-69
2023/04/03 03:17:36;;;;;;;4.95;1.88;;;2.10;99.90;;;;;;5071670;28;20119;-68
2023/04/03 03:20:02;;;;;;;6.18;1.98;;;2.10;99.90;;;;;;5071464;28;20055;-68
2023/04/03 03:22:28;;;;;;;4.53;2.60;;;2.10;99.90;;;;;;5071351;28;20389;-69
2023/04/03 03:24:53;;;;;;;2.63;2.13;;;2.00;99.90;;;;;;5069721;28;20040;-69
2023/04/03 03:27:19;;;;;;;7.30;1.90;;;2.00;99.90;;;;;;5071142;28;20090;-69
2023/04/03 03:29:45;;;;;;;5.93;2.05;;;2.00;99.90;;;;;;5070187;28;20404;-69
2023/04/03 03:32:10;;;;;;;5.75;1.92;;;1.90;99.90;;;;;;5071359;28;20461;-68
2023/04/03 03:34:36;;;;;;;4.15;1.63;;;1.90;99.90;;;;;;5071077;28;20500;-69
2023/04/03 03:37:01;;;;;;;4.10;2.00;;;1.90;99.90;;;;;;5070953;28;20040;-69
2023/04/03 03:39:27;;;;;;;6.93;1.73;;;1.80;99.90;;;;;;5069771;28;20122;-69
2023/04/03 03:41:53;;;;;;;4.85;1.60;;;1.70;99.90;;;;;;5069747;28;20048;-69
2023/04/03 03:44:19;;;;;;;4.18;2.10;;;1.70;99.90;;;;;;5069462;28;20432;-69
2023/04/03 03:46:45;;;;;;;4.80;1.50;;;1.70;99.90;;;;;;5070921;28;20407;-70
2023/04/03 03:49:11;;;;;;;4.35;1.88;;;1.60;99.90;;;;;;5074871;28;20043;-69
2023/04/03 03:51:37;;;;;;;5.32;1.70;;;1.60;99.90;;;;;;5073499;28;20048;-69
2023/04/03 03:54:03;;;;;;;4.45;1.88;;;1.60;99.90;;;;;;5074484;28;20098;-69
2023/04/03 03:56:29;;;;;;;7.72;2.33;;;1.60;99.90;;;;;;5073044;28;20068;-70
2023/04/03 03:58:56;;;;;;;2.50;1.42;;;1.60;99.90;;;;;;5073343;28;20040;-69
2023/04/03 04:01:22;;;;;;;6.70;1.85;;;1.60;99.90;;;;;;5073178;28;20056;-69
2023/04/03 04:03:48;;;;;;;6.35;2.20;;;1.60;99.90;;;;;;5074527;28;20036;-69
2023/04/03 04:06:13;;;;;;;8.32;2.40;;;1.50;99.90;;;;;;5074252;28;20040;-69
2023/04/03 04:08:39;;;;;;;5.57;1.90;;;1.50;99.90;;;;;;5074329;28;20075;-69
2023/04/03 04:11:05;;;;;;;3.55;1.75;;;1.50;99.90;;;;;;5073010;28;20072;-69
2023/04/03 04:13:30;;;;;;;5.25;1.85;;;1.40;99.90;;;;;;5073111;28;20097;-69
2023/04/03 04:15:56;;;;;;;6.05;2.05;;;1.40;99.90;;;;;;5074205;28;20499;-69
2023/04/03 04:18:22;;;;;;;5.22;1.80;;;1.40;99.90;;;;;;5073227;28;20044;-69
2023/04/03 04:20:48;;;;;;;3.25;1.85;;;1.30;99.90;;;;;;5073005;28;20032;-69
2023/04/03 04:23:14;;;;;;;5.75;2.33;;;1.30;99.90;;;;;;5073098;28;20435;-69
2023/04/03 04:25:40;;;;;;;4.28;1.77;;;1.30;99.90;;;;;;5073701;28;20047;-69
2023/04/03 04:28:06;;;;;;;6.97;2.50;;;1.30;99.90;;;;;;5074309;28;20087;-69
2023/04/03 04:30:31;;;;;;;6.95;2.00;;;1.30;99.90;;;;;;5074191;28;20117;-69
2023/04/03 04:32:57;;;;;;;9.05;2.45;;;1.20;99.90;;;;;;5072881;28;20040;-69
2023/04/03 04:35:22;;;;;;;4.88;2.00;;;1.30;99.90;;;;;;5072358;28;20037;-69
2023/04/03 04:37:48;;;;;;;6.22;2.08;;;1.20;99.90;;;;;;5072376;28;20046;-69
2023/04/03 04:40:13;;;;;;;10.05;3.50;;;1.10;99.90;;;;;;5072456;28;20071;-69
2023/04/03 04:42:39;;;;;;;8.73;2.85;;;1.20;99.90;;;;;;5072463;28;20047;-69
2023/04/03 04:45:05;;;;;;;5.72;2.05;;;1.10;99.90;;;;;;5072234;28;20062;-68
2023/04/03 04:47:30;;;;;;;5.80;2.25;;;1.10;99.90;;;;;;5073820;28;20047;-71
2023/04/03 04:49:56;;;;;;;5.63;2.13;;;1.10;99.90;;;;;;5072370;28;20041;-70
2023/04/03 04:52:22;;;;;;;6.93;2.63;;;1.10;99.90;;;;;;5055683;28;20044;-70
2023/04/03 04:54:47;;;;;;;5.10;2.35;;;1.10;99.90;;;;;;5071950;28;20051;-70
2023/04/03 04:57:13;;;;;;;6.43;2.65;;;1.10;99.90;;;;;;5073500;28;20039;-70
2023/04/03 04:59:38;;;;;;;8.48;2.20;;;1.00;99.90;;;;;;5071289;28;20037;-70
2023/04/03 05:02:04;;;;;;;8.38;2.15;;;1.00;99.90;;;;;;5073471;28;20044;-70
2023/04/03 05:04:29;;;;;;;5.10;1.90;;;1.00;99.90;;;;;;5073436;28;20085;-70
2023/04/03 05:06:55;;;;;;;13.15;4.00;;;0.90;99.90;;;;;;5073077;28;20036;-70
2023/04/03 05:09:21;;;;;;;7.32;3.42;;;1.00;99.90;;;;;;5073193;28;20515;-70
2023/04/03 05:11:46;;;;;;;3.95;2.42;;;0.90;99.90;;;;;;5073280;28;20519;-70
2023/04/03 05:14:12;;;;;;;5.68;2.95;;;0.90;99.90;;;;;;5071706;28;20044;-70
2023/04/03 05:16:38;;;;;;;7.50;2.33;;;0.90;99.90;;;;;;5071620;28;20040;-70
2023/04/03 05:19:03;;;;;;;6.95;3.65;;;1.00;99.90;;;;;;5071765;28;20410;-70
2023/04/03 05:21:31;;;;;;;5.88;2.60;;;1.00;99.90;;;;;;5071807;28;20389;-70
2023/04/03 05:23:59;;;;;;;7.53;2.55;;;1.00;99.90;;;;;;5071490;28;20037;-70
2023/04/03 05:26:25;;;;;;;9.55;3.25;;;1.00;99.90;;;;;;5072885;28;20048;-70
2023/04/03 05:28:51;;;;;;;11.45;3.58;;;1.00;99.90;;;;;;5071595;28;20519;-70
2023/04/03 05:31:17;;;;;;;10.88;3.67;;;1.00;99.90;;;;;;5073024;28;20044;-69
2023/04/03 05:33:42;;;;;;;9.43;3.50;;;1.00;99.90;;;;;;5072782;28;20393;-70
2023/04/03 05:36:08;;;;;;;8.55;3.53;;;1.00;99.90;;;;;;5072332;28;20527;-70
2023/04/03 05:38:33;;;;;;;6.35;3.00;;;1.10;99.90;;;;;;5072565;28;20075;-70
2023/04/03 05:40:59;;;;;;;10.23;5.05;;;1.10;99.90;;;;;;5071200;28;20063;-70
2023/04/03 05:43:25;;;;;;;7.53;3.50;;;1.10;99.90;;;;;;5072633;28;20037;-70
2023/04/03 05:45:52;;;;;;;9.45;3.30;;;0.90;99.90;;;;;;5070759;28;20074;-70
2023/04/03 05:48:17;;;;;;;11.65;3.22;;;1.20;99.90;;;;;;5071168;28;20037;-70
2023/04/03 05:50:43;;;;;;;4.82;2.45;;;1.20;99.90;;;;;;5072330;28;20037;-70
2023/04/03 05:53:22;;;;;;;6.07;4.28;;;1.20;99.90;;;;;;5072123;28;20051;-70
2023/04/03 05:55:47;;;;;;;4.38;2.60;;;1.30;99.90;;;;;;5071990;28;20071;-70
2023/04/03 05:58:13;;;;;;;7.97;3.10;;;1.40;99.90;;;;;;5070817;28;20396;-70
2023/04/03 06:00:39;;;;;;;8.57;2.65;;;1.40;99.90;;;;;;5070952;28;20119;-70
2023/04/03 06:03:06;;;;;;;7.85;2.83;;;1.50;99.90;;;;;;5070872;28;20519;-69
2023/04/03 06:05:31;;;;;;;7.53;3.08;;;1.60;99.90;;;;;;5071735;28;20033;-70
2023/04/03 06:07:57;;;;;;;7.57;3.15;;;1.50;99.90;;;;;;5072057;28;20046;-70
2023/04/03 06:10:23;;;;;;;4.65;2.67;;;1.60;99.90;;;;;;5070716;28;20036;-70
2023/04/03 06:12:49;;;;;;;5.13;2.60;;;1.80;99.90;;;;;;5070637;28;20180;-70
2023/04/03 06:15:15;;;;;;;8.70;2.70;;;2.00;99.90;;;;;;5070637;28;20036;-70
2023/04/03 06:17:41;;;;;;;8.77;2.88;;;2.20;99.90;;;;;;5070367;28;20051;-70
2023/04/03 06:20:07;;;;;;;6.47;2.55;;;2.40;99.90;;;;;;5071874;28;20040;-70
2023/04/03 06:22:33;;;;;;;7.85;2.80;;;2.60;99.90;;;;;;5070505;28;20041;-71
2023/04/03 06:24:58;;;;;;;11.68;3.47;;;2.80;99.90;;;;;;5070381;28;20106;-69
2023/04/03 06:27:24;;;;;;;20.55;7.18;;;3.00;99.90;;;;;;5070438;28;20048;-71
2023/04/03 06:29:49;;;;;;;8.10;3.08;;;3.20;99.90;;;;;;5070744;28;20068;-71
2023/04/03 06:32:15;;;;;;;7.07;2.65;;;3.40;99.90;;;;;;5070461;28;20041;-70
2023/04/03 06:34:41;;;;;;;11.07;3.33;;;3.60;99.90;;;;;;5070162;28;20041;-71
2023/04/03 06:37:18;;;;;;;5.72;2.58;;;3.70;99.90;;;;;;5070537;28;20047;-70
2023/04/03 06:39:45;;;;;;;5.88;2.20;;;3.90;99.90;;;;;;5070680;28;20075;-71
2023/04/03 06:42:10;;;;;;;6.28;2.17;;;4.10;99.90;;;;;;5053601;28;20128;-71
2023/04/03 06:44:36;;;;;;;5.50;2.20;;;4.30;99.90;;;;;;5070431;28;20071;-71
2023/04/03 06:47:02;;;;;;;5.82;2.40;;;4.40;99.90;;;;;;5070465;28;20082;-71
2023/04/03 06:49:28;;;;;;;5.00;2.72;;;4.50;99.90;;;;;;5071516;28;20511;-71
2023/04/03 06:51:55;;;;;;;5.72;2.72;;;4.60;99.90;;;;;;5070565;28;20399;-71
2023/04/03 06:54:20;;;;;;;6.22;2.70;;;4.70;99.90;;;;;;5070150;28;20113;-71
2023/04/03 06:56:46;;;;;;;6.82;3.00;;;4.80;99.90;;;;;;5053317;28;20182;-71
2023/04/03 06:59:13;;;;;;;11.02;3.50;;;4.90;99.90;;;;;;5070094;28;20052;-71
2023/04/03 07:01:39;;;;;;;6.28;2.10;;;5.00;99.90;;;;;;5071387;28;20517;-71
2023/04/03 07:04:05;;;;;;;5.13;2.50;;;5.20;99.90;;;;;;5069951;28;20044;-71
2023/04/03 07:06:32;;;;;;;7.90;2.95;;;5.10;99.90;;;;;;5071405;28;20044;-70
2023/04/03 07:08:57;;;;;;;6.13;2.30;;;5.30;99.90;;;;;;5070171;28;20097;-70
2023/04/03 07:11:23;;;;;;;3.58;2.30;;;5.40;99.90;;;;;;5071427;28;20115;-70
2023/04/03 07:13:50;;;;;;;9.70;2.53;;;5.60;99.90;;;;;;5071297;28;20041;-71
2023/04/03 07:16:15;;;;;;;19.08;9.48;;;5.60;99.90;;;;;;5071149;28;20040;-70
2023/04/03 07:18:41;;;;;;;7.63;2.92;;;5.60;99.90;;;;;;5070338;28;20105;-70
2023/04/03 07:21:07;;;;;;;7.03;1.98;;;5.70;99.90;;;;;;5070479;28;20094;-70
2023/04/03 07:23:32;;;;;;;8.02;3.58;;;5.70;99.90;;;;;;5073977;28;20127;-71
2023/04/03 07:25:59;;;;;;;6.13;2.38;;;5.90;99.90;;;;;;5073711;28;20043;-71
2023/04/03 07:28:25;;;;;;;6.68;2.40;;;6.00;99.90;;;;;;5057439;28;20496;-71
2023/04/03 07:31:04;;;;;;;7.25;2.17;;;6.00;99.90;;;;;;5057531;28;20040;-72
2023/04/03 07:33:30;;;;;;;7.82;2.25;;;6.20;99.40;;;;;;5075183;28;20042;-71
2023/04/03 07:35:56;;;;;;;8.35;2.30;;;6.30;99.40;;;;;;5075008;28;20044;-71
2023/04/03 07:38:22;;;;;;;4.30;2.00;;;6.40;99.20;;;;;;5073941;28;20036;-71
2023/04/03 07:40:49;;;;;;;7.30;2.65;;;6.50;98.80;;;;;;5073593;28;20047;-71
2023/04/03 07:43:17;;;;;;;5.90;2.00;;;6.50;98.10;;;;;;5073598;28;20043;-71
2023/04/03 07:45:43;;;;;;;7.20;2.83;;;6.60;97.60;;;;;;5073225;28;20036;-71
2023/04/03 07:48:12;;;;;;;4.80;1.98;;;6.70;97.20;;;;;;5073528;28;20040;-71
2023/04/03 07:50:40;;;;;;;24.13;11.10;;;6.80;96.90;;;;;;5073719;28;20040;-72
2023/04/03 07:53:06;;;;;;;24.83;12.95;;;6.70;95.60;;;;;;5074653;28;20522;-72
2023/04/03 07:55:32;;;;;;;7.38;2.22;;;6.90;95.50;;;;;;5074390;28;20040;-71
2023/04/03 07:57:57;;;;;;;3.95;1.23;;;6.90;95.00;;;;;;5074595;28;20059;-71
2023/04/03 08:00:24;;;;;;;8.15;1.65;;;7.00;94.30;;;;;;5073230;28;20397;-71
2023/04/03 08:02:51;;;;;;;6.03;2.17;;;6.90;93.80;;;;;;5073113;28;20416;-71
2023/04/03 08:05:18;;;;;;;5.45;1.70;;;6.80;93.70;;;;;;5073182;28;20051;-72
2023/04/03 08:07:44;;;;;;;6.07;1.90;;;7.00;93.80;;;;;;5073134;28;20520;-71
2023/04/03 08:10:09;;;;;;;9.68;2.65;;;7.00;93.80;;;;;;5072959;28;20243;-71
2023/04/03 08:12:36;;;;;;;4.55;1.70;;;7.20;94.10;;;;;;5073385;28;20048;-71
2023/04/03 08:15:03;;;;;;;6.30;1.80;;;7.40;93.70;;;;;;5074282;28;20116;-71
2023/04/03 08:17:29;;;;;;;5.97;1.80;;;7.60;93.40;;;;;;5072921;28;20430;-71
2023/04/03 08:19:55;;;;;;;4.38;2.10;;;7.60;92.20;;;;;;5074224;28;20033;-71
2023/04/03 08:22:20;;;;;;;2.35;1.50;;;7.90;92.70;;;;;;5074204;28;20458;-71
2023/04/03 08:24:46;;;;;;;5.57;1.75;;;7.70;91.70;;;;;;5072607;28;20037;-72
2023/04/03 08:27:12;;;;;;;5.88;1.90;;;7.80;91.40;;;;;;5073004;28;20534;-72
2023/04/03 08:29:38;;;;;;;5.82;1.80;;;7.60;90.90;;;;;;5073991;28;20036;-71
2023/04/03 08:32:04;;;;;;;6.97;2.05;;;7.70;91.50;;;;;;5073979;28;20082;-72
2023/04/03 08:34:34;;;;;;;10.50;2.67;;;7.90;91.30;;;;;;5072645;28;20049;-71
2023/04/03 08:37:00;;;;;;;41.45;23.95;;;8.00;91.10;;;;;;5073742;28;20131;-71
2023/04/03 08:39:26;;;;;;;12.73;7.32;;;8.10;90.50;;;;;;5072558;28;20048;-71
2023/04/03 08:41:54;;;;;;;5.78;2.38;;;7.90;90.30;;;;;;5072383;28;20389;-70
2023/04/03 08:44:55;;;;;;;4.90;1.70;;;8.00;90.40;;;;;;5073879;28;20431;-71
2023/04/03 08:47:53;;;;;;;4.93;2.10;;;8.10;89.20;;;;;;5072600;28;20396;-71
2023/04/03 08:50:24;;;;;;;2.90;1.50;;;8.20;87.40;;;;;;5072907;28;20090;-71
2023/04/03 08:52:55;;;;;;;5.93;1.75;;;8.00;85.90;;;;;;5072355;28;20036;-71
2023/04/03 08:55:31;;;;;;;4.43;2.03;;;8.10;85.30;;;;;;5072355;28;20063;-71
2023/04/03 08:58:02;;;;;;;5.95;2.03;;;8.10;85.00;;;;;;5072346;28;20044;-71
2023/04/03 09:00:44;;;;;;;3.78;1.75;;;8.00;83.60;;;;;;5073503;28;20036;-71
2023/04/03 09:03:13;;;;;;;5.47;1.63;;;8.30;83.70;;;;;;5071973;28;20123;-71
2023/04/03 09:06:06;;;;;;;8.45;1.92;;;8.20;83.90;;;;;;5073271;28;20036;-71
2023/04/03 09:08:42;;;;;;;4.82;2.10;;;8.20;81.70;;;;;;5072136;28;20086;-71
2023/04/03 09:11:31;;;;;;;4.15;1.33;;;8.20;82.20;;;;;;5072178;28;20070;-71
2023/04/03 09:14:12;;;;;;;5.53;1.98;;;8.40;81.20;;;;;;5072148;28;20056;-70
2023/04/03 09:16:49;;;;;;;5.35;1.55;;;8.40;82.90;;;;;;5071640;28;20044;-71
2023/04/03 09:19:39;;;;;;;4.68;1.38;;;8.30;82.60;;;;;;5055259;28;20036;-70
2023/04/03 09:22:17;;;;;;;3.80;1.20;;;8.30;78.30;;;;;;5071554;28;20048;-72
2023/04/03 09:24:46;;;;;;;2.67;1.70;;;8.20;76.00;;;;;;5070817;28;20476;-75
2023/04/03 09:27:12;;;;;;;1.85;1.15;;;8.10;73.80;;;;;;5071033;28;20036;-75
2023/04/03 09:29:45;;;;;;;7.15;3.25;;;8.10;73.10;;;;;;5054986;28;20032;-74
2023/04/03 09:32:18;;;;;;;;;;;8.10;73.20;;;;;;5072122;28;20086;-74
2023/04/03 09:34:44;;;;;;;4.13;1.42;;;8.00;71.90;;;;;;5072890;28;20011;-74
2023/04/03 09:37:37;;;;;;;3.47;1.30;;;8.00;73.50;;;;;;5072673;28;20045;-75
2023/04/03 09:40:04;;;;;;;6.03;1.35;;;8.00;71.80;;;;;;5071889;28;20122;-77
2023/04/03 09:42:31;;;;;;;3.13;1.00;;;8.00;70.40;;;;;;5071305;28;20044;-74
2023/04/03 09:45:21;;;;;;;1.83;0.82;;;7.80;67.70;;;;;;5070572;28;20041;-76
2023/04/03 09:47:47;;;;;;;3.22;1.30;;;7.80;68.20;;;;;;5070785;28;20044;-73
2023/04/03 09:50:12;;;;;;;4.45;1.67;;;8.10;69.20;;;;;;5072150;28;20037;-73
2023/04/03 09:52:40;;;;;;;10.40;3.72;;;8.20;67.40;;;;;;5069119;28;20040;-70
2023/04/03 09:55:18;;;;;;;1.58;0.75;;;8.30;65.70;;;;;;5070731;28;20040;-70
2023/04/03 09:57:45;;;;;;;1.95;1.02;;;8.40;64.00;;;;;;5070852;28;20036;-70
2023/04/03 10:00:25;;;;;;;3.50;1.52;;;8.50;63.30;;;;;;5069420;28;20076;-70
2023/04/03 10:02:55;;;;;;;2.38;0.93;;;8.50;62.50;;;;;;5070695;28;20040;-70
2023/04/03 10:05:32;;;;;;;3.90;1.00;;;8.50;62.00;;;;;;5069852;28;20063;-70
2023/04/03 10:08:12;;;;;;;3.80;1.27;;;8.60;61.60;;;;;;5071194;28;20083;-72
2023/04/03 10:10:40;;;;;;;2.58;0.90;;;8.80;63.10;;;;;;5070722;28;20041;-71
2023/04/03 10:13:20;;;;;;;2.70;1.50;;;8.70;62.90;;;;;;5069735;28;20459;-71
2023/04/03 10:15:56;;;;;;;2.03;0.90;;;8.70;61.80;;;;;;5070034;28;20075;-72
2023/04/03 10:18:46;;;;;;;2.38;0.70;;;8.80;60.90;;;;;;5070410;28;20040;-71
2023/04/03 10:21:28;;;;;;;2.78;0.80;;;8.70;61.00;;;;;;5070366;28;20032;-71
2023/04/03 10:24:03;;;;;;;3.33;0.90;;;8.80;59.00;;;;;;5068592;28;20098;-72
2023/04/03 10:26:49;;;;;;;2.28;0.82;;;8.60;57.00;;;;;;5070618;28;20064;-71
2023/04/03 10:29:42;;;;;;;2.38;0.88;;;8.70;57.30;;;;;;5069851;28;20047;-70
2023/04/03 10:32:29;;;;;;;5.43;1.58;;;8.70;57.50;;;;;;5071647;28;20044;-70
2023/04/03 10:35:33;;;;;;;1.95;0.75;;;8.60;56.60;;;;;;5069441;28;20518;-70
2023/04/03 10:38:28;;;;;;;6.65;1.20;;;8.60;56.70;;;;;;5109087;22;20097;-76
2023/04/03 10:41:06;;;;;;;4.65;1.25;;;8.80;56.70;;;;;;5089256;28;20483;-76
2023/04/03 10:43:48;;;;;;;4.90;1.10;;;8.70;56.60;;;;;;5088873;28;20036;-76
2023/04/03 10:46:35;;;;;;;2.08;1.08;;;8.70;54.90;;;;;;5090387;28;20040;-75
2023/04/03 10:49:30;;;;;;;2.63;1.17;;;8.70;56.40;;;;;;5091864;28;20591;-76
2023/04/03 10:52:15;;;;;;;3.20;1.02;;;8.80;57.70;;;;;;5090566;28;20519;-75
2023/04/03 10:55:07;;;;;;;2.83;1.00;;;8.60;55.60;;;;;;5090339;28;20039;-76
2023/04/03 10:57:33;;;;;;;3.40;1.10;;;8.60;55.00;;;;;;5090500;28;20051;-77
2023/04/03 11:00:08;;;;;;;1.38;0.90;;;8.60;53.60;;;;;;5089874;28;20043;-76
2023/04/03 11:02:48;;;;;;;1.58;0.70;;;8.50;50.80;;;;;;5089449;28;20121;-77
2023/04/03 11:05:33;;;;;;;1.35;0.63;;;8.50;50.80;;;;;;5073601;28;20040;-77
2023/04/03 11:08:05;;;;;;;1.73;0.80;;;8.50;49.90;;;;;;5090376;28;20039;-76
2023/04/03 11:10:42;;;;;;;1.95;0.68;;;8.50;49.80;;;;;;5090417;28;20046;-76
2023/04/03 11:13:22;;;;;;;5.75;1.42;;;8.50;48.30;;;;;;5090601;28;20512;-76
2023/04/03 11:15:49;;;;;;;2.65;0.98;;;8.40;48.70;;;;;;5090478;28;20392;-76
2023/04/03 11:18:21;;;;;;;1.08;0.68;;;8.50;50.40;;;;;;5090584;28;20063;-75
2023/04/03 11:21:19;;;;;;;2.35;1.10;;;8.50;50.00;;;;;;5090035;28;20122;-76
2023/04/03 11:23:46;;;;;;;2.35;0.82;;;8.50;48.70;;;;;;5089519;28;20112;-76
2023/04/03 11:26:15;;;;;;;1.23;0.60;;;8.50;48.20;;;;;;5090532;28;20044;-77
2023/04/03 11:28:41;;;;;;;1.75;0.90;;;8.60;48.70;;;;;;5090353;28;20534;-76
2023/04/03 11:31:31;;;;;;;2.15;0.93;;;8.50;48.50;;;;;;5090027;28;20044;-77
2023/04/03 11:34:25;;;;;;;2.15;0.77;;;8.60;47.90;;;;;;5090145;28;20119;-76
2023/04/03 11:36:56;;;;;;;1.45;0.65;;;8.50;47.00;;;;;;5073498;28;20048;-78
2023/04/03 11:39:48;;;;;;;2.67;0.88;;;8.50;46.50;;;;;;5091004;28;20040;-78
2023/04/03 11:42:29;;;;;;;3.15;0.80;;;8.40;45.00;;;;;;5091914;28;20036;-77
2023/04/03 11:45:32;;;;;;;1.55;1.10;;;8.50;45.90;;;;;;5074088;28;20748;-78
2023/04/03 11:48:25;;;;;;;4.05;1.00;;;8.50;44.50;;;;;;5090883;28;20457;-78
2023/04/03 11:50:51;;;;;;;3.65;0.65;;;8.60;45.00;;;;;;5073744;28;20092;-78
2023/04/03 11:53:17;;;;;;;1.95;0.80;;;8.60;46.00;;;;;;5090405;28;20445;-80
2023/04/03 11:55:48;;;;;;;2.40;0.73;;;8.60;45.90;;;;;;5089077;28;20040;-78
2023/04/03 11:58:15;;;;;;;3.10;0.70;;;8.50;44.70;;;;;;5089885;28;20056;-76
2023/04/03 12:00:43;;;;;;;2.08;0.90;;;8.50;45.00;;;;;;5090743;28;20044;-78
2023/04/03 12:03:24;;;;;;;2.40;1.13;;;8.60;45.70;;;;;;5090372;28;20040;-74
2023/04/03 12:06:16;;;;;;;5.40;1.50;;;8.60;46.10;;;;;;5072901;28;20465;-74
2023/04/03 12:08:42;;;;;;;3.42;0.68;;;8.50;45.20;;;;;;5091982;28;20116;-74
2023/04/03 12:11:10;;;;;;;2.10;1.00;;;8.50;45.50;;;;;;5093753;28;20127;-74
2023/04/03 12:13:48;;;;;;;2.17;1.08;;;8.50;45.70;;;;;;5093342;28;20040;-74
2023/04/03 12:16:24;;;;;;;2.95;0.90;;;8.60;46.00;;;;;;5093257;28;20087;-74
2023/04/03 12:18:53;;;;;;;7.25;1.30;;;8.50;45.30;;;;;;5076533;28;20067;-75
2023/04/03 12:21:33;;;;;;;5.07;1.25;;;8.40;45.40;;;;;;5093471;28;20446;-74
2023/04/03 12:24:08;;;;;;;3.33;1.17;;;8.60;46.10;;;;;;5093660;28;20047;-78
2023/04/03 12:26:46;;;;;;;1.90;0.90;;;8.60;45.70;;;;;;5092860;28;20040;-74
2023/04/03 12:29:17;;;;;;;3.28;0.77;;;8.60;45.20;;;;;;5076081;28;20036;-75
2023/04/03 12:32:10;;;;;;;4.25;0.85;;;8.60;45.70;;;;;;5092744;28;20530;-77
2023/04/03 12:34:57;;;;;;;1.83;1.20;;;8.60;45.60;;;;;;5090418;28;20636;-75
2023/04/03 12:37:55;;;;;;;1.90;0.63;;;8.60;46.10;;;;;;5092667;28;20173;-75
2023/04/03 12:40:39;;;;;;;2.63;0.90;;;8.70;45.50;;;;;;5076949;28;20054;-79
2023/04/03 12:43:05;;;;;;;2.25;0.70;;;8.80;44.50;;;;;;5093127;28;20036;-74
2023/04/03 12:45:43;;;;;;;2.13;0.75;;;8.80;43.50;;;;;;5093297;28;20044;-73
2023/04/03 12:48:17;;;;;;;2.20;1.05;;;8.80;43.10;;;;;;5092886;28;20514;-75
2023/04/03 12:50:46;;;;;;;2.38;0.70;;;8.80;43.40;;;;;;5077009;28;20495;-74
2023/04/03 12:53:17;;;;;;;2.55;0.80;;;8.80;44.10;;;;;;5093057;28;20040;-74
2023/04/03 12:55:42;;;;;;;2.00;0.90;;;8.90;44.60;;;;;;5075687;28;20546;-75
2023/04/03 12:58:23;;;;;;;2.72;0.93;;;9.00;44.70;;;;;;5076356;28;20105;-75
2023/04/03 13:01:13;;;;;;;2.65;1.38;;;8.90;43.90;;;;;;5092254;28;20506;-74
2023/04/03 13:03:42;;;;;;;1.33;0.90;;;9.00;45.00;;;;;;5072698;28;20523;-76
2023/04/03 13:06:18;;;;;;;2.25;1.08;;;9.00;44.80;;;;;;5072648;28;20037;-77
2023/04/03 13:09:00;;;;;;;1.65;0.90;;;8.90;44.40;;;;;;5072495;28;20040;-76
2023/04/03 13:11:29;;;;;;;3.60;1.20;;;8.80;44.80;;;;;;5077202;28;20055;-76
2023/04/03 13:14:07;;;;;;;2.95;0.90;;;8.90;45.40;;;;;;5089232;28;20044;-77